createdAt,value
2023-05-14T00:01:08.241Z,60.80
2023-05-14T00:05:19.820Z,61.22
2023-05-14T00:09:32.705Z,61.68
2023-05-14T00:13:44.464Z,61.91
2023-05-14T00:17:56.157Z,62.64
2023-05-14T00:22:08.970Z,62.63
2023-05-14T00:26:21.538Z,62.60
2023-05-14T00:30:33.437Z,62.67
2023-05-14T00:34:45.084Z,62.68
2023-05-14T00:38:56.792Z,63.25
2023-05-14T00:43:08.399Z,63.48
2023-05-14T00:47:20.142Z,63.55
2023-05-14T00:51:31.807Z,63.16
2023-05-14T00:55:43.516Z,63.70
2023-05-14T00:59:55.643Z,63.69
2023-05-14T01:04:08.196Z,63.89
2023-05-14T01:08:41.854Z,64.16
2023-05-14T01:13:07.805Z,64.11
2023-05-14T01:17:22.975Z,64.89
2023-05-14T01:21:38.630Z,64.57
2023-05-14T01:25:50.363Z,65.49
2023-05-14T01:30:57.190Z,65.42
2023-05-14T01:35:10.375Z,65.63
2023-05-14T01:39:23.716Z,65.78
2023-05-14T01:43:36.103Z,66.55
2023-05-14T01:47:48.074Z,66.32
2023-05-14T01:51:59.775Z,66.25
2023-05-14T01:56:11.447Z,66.76
2023-05-14T02:00:27.536Z,67.72
2023-05-14T02:04:39.199Z,67.63
2023-05-14T02:08:50.950Z,67.90
2023-05-14T02:13:03.953Z,67.98
2023-05-14T02:17:17.711Z,68.30
2023-05-14T02:21:29.336Z,68.36
2023-05-14T02:25:41.000Z,68.52
2023-05-14T02:29:52.901Z,68.69
2023-05-14T02:34:06.677Z,69.25
2023-05-14T02:38:18.759Z,69.86
2023-05-14T02:42:30.463Z,70.32
2023-05-14T02:46:42.913Z,70.78
2023-05-14T02:50:54.619Z,70.45
2023-05-14T02:55:06.713Z,70.72
2023-05-14T02:59:18.444Z,71.34
2023-05-14T03:03:31.011Z,71.63
2023-05-14T03:07:43.201Z,72.27
2023-05-14T03:11:55.036Z,72.34
2023-05-14T03:16:06.826Z,72.53
2023-05-14T03:20:18.572Z,72.64
2023-05-14T03:24:31.552Z,72.68
2023-05-14T03:28:44.161Z,73.31
2023-05-14T03:32:55.915Z,73.61
2023-05-14T03:37:07.613Z,73.69
2023-05-14T03:41:20.069Z,73.90
2023-05-14T03:45:32.378Z,74.29
2023-05-14T03:49:44.127Z,74.39
2023-05-14T03:54:01.280Z,75.03
2023-05-14T03:58:14.048Z,74.57
2023-05-14T04:02:25.924Z,74.75
2023-05-14T04:06:37.657Z,75.13
2023-05-14T04:10:49.997Z,75.31
2023-05-14T04:15:01.850Z,75.46
2023-05-14T04:19:14.020Z,75.90
2023-05-14T04:23:26.875Z,76.15
2023-05-14T04:27:38.489Z,76.05
2023-05-14T04:31:50.119Z,75.96
2023-05-14T04:36:02.016Z,76.23
2023-05-14T04:40:13.708Z,76.15
2023-05-14T04:44:26.249Z,76.31
2023-05-14T04:48:37.824Z,76.27
2023-05-14T04:52:49.412Z,75.60
2023-05-14T04:57:03.983Z,73.71
2023-05-14T05:01:15.885Z,71.15
2023-05-14T05:05:27.505Z,67.94
2023-05-14T05:09:39.172Z,65.82
2023-05-14T05:13:50.708Z,63.93
2023-05-14T05:18:02.385Z,62.49
2023-05-14T05:22:14.023Z,61.14
2023-05-14T05:26:27.052Z,60.07
2023-05-14T05:30:38.802Z,59.17
2023-05-14T05:34:51.961Z,57.51
2023-05-14T05:39:03.739Z,55.65
2023-05-14T05:43:15.637Z,54.60
2023-05-14T05:47:27.414Z,52.40
2023-05-14T05:51:39.118Z,51.45
2023-05-14T05:55:53.648Z,50.66
2023-05-14T06:00:15.326Z,49.73
2023-05-14T06:04:26.904Z,49.23
2023-05-14T06:08:38.495Z,47.72
2023-05-14T06:12:50.395Z,46.75
2023-05-14T06:17:02.261Z,45.01
2023-05-14T06:21:14.048Z,44.96
2023-05-14T06:25:25.754Z,44.11
2023-05-14T06:29:38.065Z,43.27
2023-05-14T06:33:49.848Z,44.45
2023-05-14T06:38:01.537Z,44.85
2023-05-14T06:42:13.141Z,44.54
2023-05-14T06:46:24.761Z,44.10
2023-05-14T06:50:36.394Z,42.82
2023-05-14T06:54:48.043Z,41.73
2023-05-14T06:58:59.715Z,41.01
2023-05-14T07:03:11.471Z,39.58
2023-05-14T07:07:23.273Z,39.55
2023-05-14T07:11:34.981Z,40.40
2023-05-14T07:15:46.655Z,40.12
2023-05-14T07:19:58.346Z,40.17
2023-05-14T07:24:10.034Z,40.25
2023-05-14T07:28:21.636Z,38.88
2023-05-14T07:32:33.364Z,38.34
2023-05-14T07:36:45.411Z,37.30
2023-05-14T07:40:57.123Z,37.33
2023-05-14T07:45:09.888Z,36.29
2023-05-14T07:49:21.526Z,36.19
2023-05-14T07:53:33.188Z,35.34
2023-05-14T07:57:45.670Z,35.31
2023-05-14T08:01:57.531Z,34.56
2023-05-14T08:06:09.378Z,34.51
2023-05-14T08:10:21.264Z,33.64
2023-05-14T08:14:33.245Z,33.41
2023-05-14T08:18:44.944Z,32.80
2023-05-14T08:22:58.072Z,32.72
2023-05-14T08:27:09.924Z,31.98
2023-05-14T08:31:21.595Z,30.95
2023-05-14T08:35:33.308Z,29.33
2023-05-14T08:39:45.050Z,30.51
2023-05-14T08:44:12.976Z,29.81
2023-05-14T08:48:29.090Z,29.73
2023-05-14T08:52:41.006Z,29.22
2023-05-14T08:56:53.231Z,29.84
2023-05-14T09:01:04.974Z,29.48
2023-05-14T09:05:17.777Z,30.00
2023-05-14T09:09:30.000Z,29.75
2023-05-14T09:13:41.692Z,30.09
2023-05-14T09:17:53.587Z,29.87
2023-05-14T09:22:09.403Z,28.87
2023-05-14T09:26:24.103Z,28.12
2023-05-14T09:30:37.072Z,27.04
2023-05-14T09:34:48.735Z,26.86
2023-05-14T09:39:00.849Z,27.43
2023-05-14T09:43:13.031Z,27.01
2023-05-14T09:47:24.885Z,26.47
2023-05-14T09:51:38.483Z,25.44
2023-05-14T09:55:50.171Z,24.79
2023-05-14T10:00:01.911Z,24.04
2023-05-14T10:04:16.442Z,24.17
2023-05-14T10:08:33.599Z,24.22
2023-05-14T10:12:57.109Z,24.67
2023-05-14T10:17:18.114Z,25.33
2023-05-14T10:21:32.117Z,25.59
2023-05-14T10:25:43.968Z,25.54
2023-05-14T10:29:56.157Z,25.58
2023-05-14T10:34:37.990Z,26.66
2023-05-14T10:38:57.244Z,26.91
2023-05-14T10:43:11.326Z,27.01
2023-05-14T10:47:23.059Z,26.97
2023-05-14T10:51:36.412Z,26.18
2023-05-14T10:55:48.202Z,25.75
2023-05-14T11:00:01.314Z,24.03
2023-05-14T11:04:19.338Z,23.20
2023-05-14T11:08:32.572Z,23.08
2023-05-14T11:12:47.664Z,22.81
2023-05-14T11:16:59.365Z,21.72
2023-05-14T11:21:11.101Z,21.25
2023-05-14T11:25:25.735Z,20.84
2023-05-14T11:29:38.119Z,21.35
2023-05-14T11:33:49.687Z,20.71
2023-05-14T11:38:01.301Z,20.56
2023-05-14T11:42:14.732Z,21.30
2023-05-14T11:46:26.475Z,20.99
2023-05-14T11:50:38.161Z,21.18
2023-05-14T11:54:50.926Z,20.73
2023-05-14T11:59:02.774Z,22.86
2023-05-14T12:03:14.479Z,24.21
2023-05-14T12:07:30.428Z,25.67
2023-05-14T12:11:42.068Z,26.36
2023-05-14T12:15:58.459Z,26.85
2023-05-14T12:20:11.658Z,27.53
2023-05-14T12:24:25.637Z,27.63
2023-05-14T12:28:43.361Z,27.80
2023-05-14T12:32:55.478Z,27.89
2023-05-14T12:37:07.382Z,30.14
2023-05-14T12:41:19.075Z,32.46
2023-05-14T12:45:30.942Z,32.94
2023-05-14T12:49:42.549Z,33.35
2023-05-14T12:53:54.296Z,33.48
2023-05-14T12:58:05.904Z,34.10
2023-05-14T13:02:18.790Z,34.60
2023-05-14T13:06:31.710Z,34.54
2023-05-14T13:10:47.084Z,35.02
2023-05-14T13:14:58.751Z,35.18
2023-05-14T13:19:10.479Z,35.32
2023-05-14T13:23:22.312Z,34.59
2023-05-14T13:27:35.797Z,34.67
2023-05-14T13:31:47.432Z,34.45
2023-05-14T13:35:59.077Z,35.05
2023-05-14T13:40:11.187Z,35.27
2023-05-14T13:44:23.033Z,34.52
2023-05-14T13:48:35.934Z,34.54
2023-05-14T13:52:47.640Z,34.73
2023-05-14T13:56:59.258Z,34.73
2023-05-14T14:01:10.965Z,34.71
2023-05-14T14:05:23.987Z,35.21
2023-05-14T14:09:36.981Z,35.52
2023-05-14T14:13:48.732Z,35.76
2023-05-14T14:18:00.524Z,36.29
2023-05-14T14:22:14.053Z,35.57
2023-05-14T14:26:27.914Z,35.21
2023-05-14T14:30:39.780Z,34.95
2023-05-14T14:34:51.389Z,34.65
2023-05-14T14:39:03.058Z,35.96
2023-05-14T14:43:14.717Z,35.34
2023-05-14T14:47:26.341Z,34.82
2023-05-14T14:51:38.086Z,35.21
2023-05-14T14:55:50.476Z,35.24
2023-05-14T15:00:02.647Z,35.68
2023-05-14T15:04:14.536Z,36.27
2023-05-14T15:08:30.154Z,37.56
2023-05-14T15:12:41.841Z,37.46
2023-05-14T15:16:54.049Z,37.48
2023-05-14T15:21:05.910Z,37.84
2023-05-14T15:25:17.938Z,38.07
2023-05-14T15:29:29.625Z,38.28
2023-05-14T15:33:41.872Z,38.87
2023-05-14T15:37:59.285Z,39.18
2023-05-14T15:42:10.915Z,39.22
2023-05-14T15:46:23.632Z,39.87
2023-05-14T15:50:35.335Z,41.02
2023-05-14T15:54:47.204Z,41.71
2023-05-14T15:58:58.911Z,42.08
2023-05-14T16:03:11.131Z,42.74
2023-05-14T16:07:23.033Z,43.35
2023-05-14T16:11:34.698Z,41.13
2023-05-14T16:15:46.966Z,39.53
2023-05-14T16:20:00.874Z,37.88
2023-05-14T16:24:12.823Z,37.24
2023-05-14T16:28:24.527Z,36.24
2023-05-14T16:32:36.210Z,36.40
2023-05-14T16:36:47.948Z,36.34
2023-05-14T16:41:00.362Z,36.38
2023-05-14T16:45:12.102Z,37.08
2023-05-14T16:49:23.768Z,37.68
2023-05-14T16:53:36.062Z,38.39
2023-05-14T16:57:47.763Z,39.29
2023-05-14T17:01:59.559Z,40.02
2023-05-14T17:06:11.448Z,40.02
2023-05-14T17:10:25.258Z,39.11
2023-05-14T17:14:36.923Z,38.55
2023-05-14T17:18:49.181Z,38.30
2023-05-14T17:23:00.912Z,38.24
2023-05-14T17:27:13.807Z,38.63
2023-05-14T17:31:27.001Z,39.33
2023-05-14T17:35:38.901Z,41.19
2023-05-14T17:39:51.115Z,42.35
2023-05-14T17:44:02.818Z,44.12
2023-05-14T17:48:14.518Z,45.65
2023-05-14T17:52:26.324Z,46.36
2023-05-14T17:56:38.155Z,49.03
2023-05-14T18:00:49.859Z,51.60
2023-05-14T18:05:02.792Z,53.72
2023-05-14T18:09:15.285Z,55.12
2023-05-14T18:13:26.942Z,55.87
2023-05-14T18:17:38.631Z,56.43
2023-05-14T18:21:50.822Z,57.01
2023-05-14T18:26:02.699Z,57.88
2023-05-14T18:30:15.997Z,58.25
2023-05-14T18:34:27.709Z,58.54
2023-05-14T18:38:40.842Z,58.82
2023-05-14T18:42:52.537Z,59.34
2023-05-14T18:47:04.399Z,60.21
2023-05-14T18:51:16.133Z,60.72
2023-05-14T18:55:27.805Z,60.84
2023-05-14T18:59:39.495Z,61.23
2023-05-14T19:03:52.933Z,61.98
2023-05-14T19:08:04.829Z,62.66
2023-05-14T19:12:16.678Z,62.93
2023-05-14T19:16:28.465Z,63.11
2023-05-14T19:20:40.297Z,63.35
2023-05-14T19:24:51.957Z,63.63
2023-05-14T19:29:03.613Z,63.76
2023-05-14T19:33:15.435Z,63.85
2023-05-14T19:37:27.304Z,64.12
2023-05-14T19:41:39.061Z,64.41
2023-05-14T19:45:50.800Z,64.68
2023-05-14T19:50:02.516Z,64.96
2023-05-14T19:54:14.749Z,65.57
2023-05-14T19:58:26.684Z,65.93
2023-05-14T20:02:40.491Z,66.32
2023-05-14T20:06:52.761Z,66.67
2023-05-14T20:11:04.638Z,67.14
2023-05-14T20:15:16.333Z,67.46
2023-05-14T20:19:27.993Z,67.94
2023-05-14T20:23:39.741Z,68.35
2023-05-14T20:27:52.508Z,68.73
2023-05-14T20:32:04.405Z,69.42
2023-05-14T20:36:16.188Z,69.37
2023-05-14T20:40:27.908Z,70.01
2023-05-14T20:44:40.012Z,70.54
2023-05-14T20:48:54.533Z,70.69
2023-05-14T20:53:06.424Z,71.00
2023-05-14T20:57:18.917Z,71.40
2023-05-14T21:01:30.656Z,71.75
2023-05-14T21:05:43.724Z,72.14
2023-05-14T21:09:55.481Z,72.10
2023-05-14T21:14:07.123Z,73.19
2023-05-14T21:18:18.824Z,73.10
2023-05-14T21:22:30.582Z,73.34
2023-05-14T21:26:42.538Z,73.61
2023-05-14T21:30:54.173Z,73.48
2023-05-14T21:35:06.324Z,74.29
2023-05-14T21:39:18.037Z,74.09
2023-05-14T21:43:29.707Z,74.87
2023-05-14T21:47:41.466Z,75.52
2023-05-14T21:51:56.398Z,75.11
2023-05-14T21:56:08.315Z,75.60
2023-05-14T22:00:23.504Z,75.10
2023-05-14T22:04:35.448Z,75.41
2023-05-14T22:08:47.256Z,75.10
2023-05-14T22:12:59.032Z,75.42
2023-05-14T22:17:12.702Z,76.33
2023-05-14T22:21:24.348Z,75.83
2023-05-14T22:25:36.093Z,75.66
2023-05-14T22:29:47.713Z,75.61
2023-05-14T22:33:59.363Z,75.85
2023-05-14T22:38:11.023Z,76.22
2023-05-14T22:42:22.693Z,76.45
2023-05-14T22:46:34.391Z,76.55
2023-05-14T22:50:46.055Z,76.33
2023-05-14T22:54:57.640Z,76.96
2023-05-14T22:59:09.346Z,76.82
2023-05-14T23:03:21.109Z,76.89
2023-05-14T23:07:32.859Z,76.88
2023-05-14T23:11:44.474Z,77.00
2023-05-14T23:15:56.214Z,77.43
2023-05-14T23:20:10.787Z,77.49
2023-05-14T23:24:22.565Z,77.88
2023-05-14T23:28:34.211Z,78.50
2023-05-14T23:32:46.031Z,78.14
2023-05-14T23:36:57.770Z,78.13
2023-05-14T23:41:09.534Z,78.37
2023-05-14T23:45:21.181Z,78.92
2023-05-14T23:49:32.857Z,79.23
2023-05-14T23:53:44.573Z,79.21
2023-05-14T23:57:56.254Z,79.77
